sensor_id;sensor_type;location;lat;lon;timestamp;P1;durP1;ratioP1;P2;durP2;ratioP2
74471;SDS011;62920;53.572;10.050;2023-05-10T00:00:21;6.82;;;2.50;;
74471;SDS011;62920;53.572;10.050;2023-05-10T00:02:48;5.15;;;2.45;;
74471;SDS011;62920;53.572;10.050;2023-05-10T00:05:14;5.78;;;2.70;;
74471;SDS011;62920;53.572;10.050;2023-05-10T00:07:39;7.75;;;2.92;;
74471;SDS011;62920;53.572;10.050;2023-05-10T00:10:05;6.75;;;2.40;;
74471;SDS011;62920;53.572;10.050;2023-05-10T00:12:31;8.77;;;2.67;;
74471;SDS011;62920;53.572;10.050;2023-05-10T00:14:56;6.03;;;2.60;;
74471;SDS011;62920;53.572;10.050;2023-05-10T00:17:21;6.28;;;2.75;;
74471;SDS011;62920;53.572;10.050;2023-05-10T00:19:47;5.55;;;2.53;;
74471;SDS011;62920;53.572;10.050;2023-05-10T00:22:13;10.43;;;2.90;;
74471;SDS011;62920;53.572;10.050;2023-05-10T00:24:38;5.63;;;2.92;;
74471;SDS011;62920;53.572;10.050;2023-05-10T00:27:03;5.63;;;2.40;;
74471;SDS011;62920;53.572;10.050;2023-05-10T00:29:29;8.30;;;2.70;;
74471;SDS011;62920;53.572;10.050;2023-05-10T00:31:54;7.07;;;2.90;;
74471;SDS011;62920;53.572;10.050;2023-05-10T00:34:20;7.40;;;2.58;;
74471;SDS011;62920;53.572;10.050;2023-05-10T00:36:45;7.72;;;2.90;;
74471;SDS011;62920;53.572;10.050;2023-05-10T00:39:11;6.72;;;2.97;;
74471;SDS011;62920;53.572;10.050;2023-05-10T00:41:37;5.40;;;2.60;;
74471;SDS011;62920;53.572;10.050;2023-05-10T00:44:02;5.57;;;2.85;;
74471;SDS011;62920;53.572;10.050;2023-05-10T00:46:29;7.43;;;2.92;;
74471;SDS011;62920;53.572;10.050;2023-05-10T00:48:54;6.57;;;2.80;;
74471;SDS011;62920;53.572;10.050;2023-05-10T00:51:20;6.30;;;2.45;;
74471;SDS011;62920;53.572;10.050;2023-05-10T00:53:45;5.75;;;2.78;;
74471;SDS011;62920;53.572;10.050;2023-05-10T00:56:11;4.65;;;2.40;;
74471;SDS011;62920;53.572;10.050;2023-05-10T00:58:37;7.60;;;2.83;;
74471;SDS011;62920;53.572;10.050;2023-05-10T01:01:03;9.18;;;2.90;;
74471;SDS011;62920;53.572;10.050;2023-05-10T01:05:55;7.10;;;2.90;;
74471;SDS011;62920;53.572;10.050;2023-05-10T01:08:20;5.53;;;2.53;;
74471;SDS011;62920;53.572;10.050;2023-05-10T01:10:46;5.57;;;3.30;;
74471;SDS011;62920;53.572;10.050;2023-05-10T01:13:13;5.13;;;2.58;;
74471;SDS011;62920;53.572;10.050;2023-05-10T01:15:45;11.07;;;2.90;;
74471;SDS011;62920;53.572;10.050;2023-05-10T01:18:11;4.63;;;2.63;;
74471;SDS011;62920;53.572;10.050;2023-05-10T01:20:39;10.75;;;3.00;;
74471;SDS011;62920;53.572;10.050;2023-05-10T01:23:44;4.82;;;2.65;;
74471;SDS011;62920;53.572;10.050;2023-05-10T01:29:27;6.78;;;3.22;;
74471;SDS011;62920;53.572;10.050;2023-05-10T01:35:02;6.47;;;2.60;;
74471;SDS011;62920;53.572;10.050;2023-05-10T01:37:36;5.45;;;3.00;;
74471;SDS011;62920;53.572;10.050;2023-05-10T01:46:20;8.38;;;3.10;;
74471;SDS011;62920;53.572;10.050;2023-05-10T01:48:51;5.90;;;2.90;;
74471;SDS011;62920;53.572;10.050;2023-05-10T01:51:19;5.65;;;3.05;;
74471;SDS011;62920;53.572;10.050;2023-05-10T01:53:47;6.45;;;3.22;;
74471;SDS011;62920;53.572;10.050;2023-05-10T01:56:13;5.93;;;2.75;;
74471;SDS011;62920;53.572;10.050;2023-05-10T01:58:39;5.07;;;2.65;;
74471;SDS011;62920;53.572;10.050;2023-05-10T02:01:05;6.05;;;2.72;;
74471;SDS011;62920;53.572;10.050;2023-05-10T02:03:32;5.25;;;3.22;;
74471;SDS011;62920;53.572;10.050;2023-05-10T02:05:58;6.15;;;2.63;;
74471;SDS011;62920;53.572;10.050;2023-05-10T02:08:24;6.93;;;3.05;;
74471;SDS011;62920;53.572;10.050;2023-05-10T02:10:50;6.30;;;3.00;;
74471;SDS011;62920;53.572;10.050;2023-05-10T02:13:18;5.28;;;2.92;;
74471;SDS011;62920;53.572;10.050;2023-05-10T02:15:44;6.18;;;3.28;;
74471;SDS011;62920;53.572;10.050;2023-05-10T02:18:14;4.95;;;2.65;;
74471;SDS011;62920;53.572;10.050;2023-05-10T02:20:41;6.93;;;2.88;;
74471;SDS011;62920;53.572;10.050;2023-05-10T02:23:07;4.57;;;2.80;;
74471;SDS011;62920;53.572;10.050;2023-05-10T02:25:32;6.25;;;2.92;;
74471;SDS011;62920;53.572;10.050;2023-05-10T02:27:58;7.38;;;3.17;;
74471;SDS011;62920;53.572;10.050;2023-05-10T02:32:50;5.07;;;3.07;;
74471;SDS011;62920;53.572;10.050;2023-05-10T02:37:42;7.18;;;2.55;;
74471;SDS011;62920;53.572;10.050;2023-05-10T02:40:08;6.53;;;2.90;;
74471;SDS011;62920;53.572;10.050;2023-05-10T02:42:36;4.80;;;3.05;;
74471;SDS011;62920;53.572;10.050;2023-05-10T02:45:05;7.25;;;3.20;;
74471;SDS011;62920;53.572;10.050;2023-05-10T02:47:33;4.82;;;2.70;;
74471;SDS011;62920;53.572;10.050;2023-05-10T02:49:58;4.47;;;2.80;;
74471;SDS011;62920;53.572;10.050;2023-05-10T02:52:28;5.03;;;3.03;;
74471;SDS011;62920;53.572;10.050;2023-05-10T02:54:56;7.68;;;3.15;;
74471;SDS011;62920;53.572;10.050;2023-05-10T02:57:27;7.18;;;2.70;;
74471;SDS011;62920;53.572;10.050;2023-05-10T02:59:54;5.05;;;3.15;;
74471;SDS011;62920;53.572;10.050;2023-05-10T03:02:20;5.75;;;2.92;;
74471;SDS011;62920;53.572;10.050;2023-05-10T03:04:45;8.27;;;2.80;;
74471;SDS011;62920;53.572;10.050;2023-05-10T03:07:11;6.47;;;3.08;;
74471;SDS011;62920;53.572;10.050;2023-05-10T03:09:36;5.78;;;2.50;;
74471;SDS011;62920;53.572;10.050;2023-05-10T03:17:25;5.07;;;3.38;;
74471;SDS011;62920;53.572;10.050;2023-05-10T03:19:55;5.32;;;2.85;;
74471;SDS011;62920;53.572;10.050;2023-05-10T03:22:25;4.65;;;2.65;;
74471;SDS011;62920;53.572;10.050;2023-05-10T03:24:54;6.75;;;2.80;;
74471;SDS011;62920;53.572;10.050;2023-05-10T03:27:22;5.22;;;2.92;;
74471;SDS011;62920;53.572;10.050;2023-05-10T03:29:48;6.65;;;2.83;;
74471;SDS011;62920;53.572;10.050;2023-05-10T03:32:16;7.53;;;3.00;;
74471;SDS011;62920;53.572;10.050;2023-05-10T03:34:41;9.82;;;3.25;;
74471;SDS011;62920;53.572;10.050;2023-05-10T03:37:08;4.75;;;2.78;;
74471;SDS011;62920;53.572;10.050;2023-05-10T03:39:33;9.20;;;3.25;;
74471;SDS011;62920;53.572;10.050;2023-05-10T03:41:59;10.02;;;3.00;;
74471;SDS011;62920;53.572;10.050;2023-05-10T03:44:24;7.43;;;2.92;;
74471;SDS011;62920;53.572;10.050;2023-05-10T03:46:49;6.65;;;3.50;;
74471;SDS011;62920;53.572;10.050;2023-05-10T03:49:15;6.65;;;3.00;;
74471;SDS011;62920;53.572;10.050;2023-05-10T03:51:40;4.90;;;3.00;;
74471;SDS011;62920;53.572;10.050;2023-05-10T03:54:06;5.57;;;3.10;;
74471;SDS011;62920;53.572;10.050;2023-05-10T03:56:31;5.78;;;3.33;;
74471;SDS011;62920;53.572;10.050;2023-05-10T03:58:57;6.68;;;2.38;;
74471;SDS011;62920;53.572;10.050;2023-05-10T04:01:22;7.47;;;3.40;;
74471;SDS011;62920;53.572;10.050;2023-05-10T04:03:48;5.43;;;3.13;;
74471;SDS011;62920;53.572;10.050;2023-05-10T04:06:13;5.15;;;3.20;;
74471;SDS011;62920;53.572;10.050;2023-05-10T04:08:39;5.40;;;3.25;;
74471;SDS011;62920;53.572;10.050;2023-05-10T04:11:04;5.68;;;2.92;;
74471;SDS011;62920;53.572;10.050;2023-05-10T04:13:33;6.05;;;3.30;;
74471;SDS011;62920;53.572;10.050;2023-05-10T04:15:59;5.63;;;2.95;;
74471;SDS011;62920;53.572;10.050;2023-05-10T04:18:25;7.63;;;3.20;;
74471;SDS011;62920;53.572;10.050;2023-05-10T04:20:50;6.25;;;3.05;;
74471;SDS011;62920;53.572;10.050;2023-05-10T04:23:16;6.03;;;3.42;;
74471;SDS011;62920;53.572;10.050;2023-05-10T04:25:41;8.82;;;3.13;;
74471;SDS011;62920;53.572;10.050;2023-05-10T04:28:07;4.40;;;2.65;;
74471;SDS011;62920;53.572;10.050;2023-05-10T04:30:32;7.63;;;3.40;;
74471;SDS011;62920;53.572;10.050;2023-05-10T04:32:58;5.22;;;2.65;;
74471;SDS011;62920;53.572;10.050;2023-05-10T04:35:23;7.57;;;3.42;;
74471;SDS011;62920;53.572;10.050;2023-05-10T04:37:49;7.45;;;3.25;;
74471;SDS011;62920;53.572;10.050;2023-05-10T04:40:14;6.20;;;2.92;;
74471;SDS011;62920;53.572;10.050;2023-05-10T04:42:40;5.60;;;3.03;;
74471;SDS011;62920;53.572;10.050;2023-05-10T04:45:06;5.68;;;3.08;;
74471;SDS011;62920;53.572;10.050;2023-05-10T04:47:32;6.00;;;3.13;;
74471;SDS011;62920;53.572;10.050;2023-05-10T04:49:57;5.15;;;2.65;;
74471;SDS011;62920;53.572;10.050;2023-05-10T04:52:23;6.55;;;3.05;;
74471;SDS011;62920;53.572;10.050;2023-05-10T04:54:48;6.47;;;3.40;;
74471;SDS011;62920;53.572;10.050;2023-05-10T04:57:14;4.95;;;2.72;;
74471;SDS011;62920;53.572;10.050;2023-05-10T04:59:39;5.05;;;2.70;;
74471;SDS011;62920;53.572;10.050;2023-05-10T05:02:04;7.65;;;3.05;;
74471;SDS011;62920;53.572;10.050;2023-05-10T05:04:30;8.55;;;3.08;;
74471;SDS011;62920;53.572;10.050;2023-05-10T05:06:56;6.95;;;3.22;;
74471;SDS011;62920;53.572;10.050;2023-05-10T05:09:21;5.30;;;3.08;;
74471;SDS011;62920;53.572;10.050;2023-05-10T05:11:46;6.18;;;3.20;;
74471;SDS011;62920;53.572;10.050;2023-05-10T05:14:12;5.32;;;3.03;;
74471;SDS011;62920;53.572;10.050;2023-05-10T05:16:37;13.30;;;3.50;;
74471;SDS011;62920;53.572;10.050;2023-05-10T05:19:03;5.53;;;3.33;;
74471;SDS011;62920;53.572;10.050;2023-05-10T05:21:28;6.30;;;3.25;;
74471;SDS011;62920;53.572;10.050;2023-05-10T05:23:54;6.40;;;3.20;;
74471;SDS011;62920;53.572;10.050;2023-05-10T05:26:19;5.28;;;2.78;;
74471;SDS011;62920;53.572;10.050;2023-05-10T05:28:45;5.95;;;3.35;;
74471;SDS011;62920;53.572;10.050;2023-05-10T05:31:10;6.68;;;3.10;;
74471;SDS011;62920;53.572;10.050;2023-05-10T05:33:36;6.57;;;3.20;;
74471;SDS011;62920;53.572;10.050;2023-05-10T05:36:02;6.03;;;3.05;;
74471;SDS011;62920;53.572;10.050;2023-05-10T05:38:28;5.30;;;2.40;;
74471;SDS011;62920;53.572;10.050;2023-05-10T05:40:54;7.75;;;3.40;;
74471;SDS011;62920;53.572;10.050;2023-05-10T05:43:19;6.10;;;3.45;;
74471;SDS011;62920;53.572;10.050;2023-05-10T05:45:45;5.53;;;3.17;;
74471;SDS011;62920;53.572;10.050;2023-05-10T05:48:10;7.30;;;3.10;;
74471;SDS011;62920;53.572;10.050;2023-05-10T05:50:36;6.43;;;3.45;;
74471;SDS011;62920;53.572;10.050;2023-05-10T05:53:01;12.68;;;3.75;;
74471;SDS011;62920;53.572;10.050;2023-05-10T05:55:27;8.95;;;3.13;;
74471;SDS011;62920;53.572;10.050;2023-05-10T05:57:52;7.47;;;3.30;;
74471;SDS011;62920;53.572;10.050;2023-05-10T06:00:18;8.20;;;3.15;;
74471;SDS011;62920;53.572;10.050;2023-05-10T06:02:44;11.77;;;3.35;;
74471;SDS011;62920;53.572;10.050;2023-05-10T06:05:09;13.95;;;3.00;;
74471;SDS011;62920;53.572;10.050;2023-05-10T06:07:35;7.65;;;2.88;;
74471;SDS011;62920;53.572;10.050;2023-05-10T06:10:00;8.75;;;3.55;;
74471;SDS011;62920;53.572;10.050;2023-05-10T06:12:26;5.90;;;3.42;;
74471;SDS011;62920;53.572;10.050;2023-05-10T06:14:51;6.15;;;3.78;;
74471;SDS011;62920;53.572;10.050;2023-05-10T06:17:16;6.20;;;3.00;;
74471;SDS011;62920;53.572;10.050;2023-05-10T06:19:43;7.10;;;3.30;;
74471;SDS011;62920;53.572;10.050;2023-05-10T06:22:08;8.73;;;3.75;;
74471;SDS011;62920;53.572;10.050;2023-05-10T06:24:33;10.73;;;3.72;;
74471;SDS011;62920;53.572;10.050;2023-05-10T06:26:59;6.65;;;3.00;;
74471;SDS011;62920;53.572;10.050;2023-05-10T06:29:25;8.25;;;3.75;;
74471;SDS011;62920;53.572;10.050;2023-05-10T06:31:51;8.13;;;3.13;;
74471;SDS011;62920;53.572;10.050;2023-05-10T06:34:16;6.35;;;3.45;;
74471;SDS011;62920;53.572;10.050;2023-05-10T06:36:41;10.23;;;3.65;;
74471;SDS011;62920;53.572;10.050;2023-05-10T06:39:07;8.15;;;3.60;;
74471;SDS011;62920;53.572;10.050;2023-05-10T06:41:33;5.40;;;3.10;;
74471;SDS011;62920;53.572;10.050;2023-05-10T06:43:58;5.20;;;3.20;;
74471;SDS011;62920;53.572;10.050;2023-05-10T06:46:23;6.95;;;3.30;;
74471;SDS011;62920;53.572;10.050;2023-05-10T06:48:49;7.70;;;3.33;;
74471;SDS011;62920;53.572;10.050;2023-05-10T06:51:14;6.68;;;3.28;;
74471;SDS011;62920;53.572;10.050;2023-05-10T06:53:39;6.45;;;3.67;;
74471;SDS011;62920;53.572;10.050;2023-05-10T06:56:05;8.10;;;3.10;;
74471;SDS011;62920;53.572;10.050;2023-05-10T06:58:30;6.43;;;3.22;;
74471;SDS011;62920;53.572;10.050;2023-05-10T07:01:04;6.57;;;3.42;;
74471;SDS011;62920;53.572;10.050;2023-05-10T07:03:30;6.22;;;3.30;;
74471;SDS011;62920;53.572;10.050;2023-05-10T07:05:59;5.32;;;3.00;;
74471;SDS011;62920;53.572;10.050;2023-05-10T07:08:26;8.45;;;3.28;;
74471;SDS011;62920;53.572;10.050;2023-05-10T07:10:51;5.15;;;2.78;;
74471;SDS011;62920;53.572;10.050;2023-05-10T07:13:17;8.23;;;3.90;;
74471;SDS011;62920;53.572;10.050;2023-05-10T07:15:42;11.82;;;3.10;;
74471;SDS011;62920;53.572;10.050;2023-05-10T07:18:08;7.15;;;2.83;;
74471;SDS011;62920;53.572;10.050;2023-05-10T07:20:33;7.85;;;3.58;;
74471;SDS011;62920;53.572;10.050;2023-05-10T07:22:58;6.32;;;3.00;;
74471;SDS011;62920;53.572;10.050;2023-05-10T07:25:24;6.65;;;3.15;;
74471;SDS011;62920;53.572;10.050;2023-05-10T07:27:49;6.70;;;3.22;;
74471;SDS011;62920;53.572;10.050;2023-05-10T07:30:15;18.73;;;4.35;;
74471;SDS011;62920;53.572;10.050;2023-05-10T07:32:41;8.00;;;3.53;;
74471;SDS011;62920;53.572;10.050;2023-05-10T07:35:07;17.55;;;4.10;;
74471;SDS011;62920;53.572;10.050;2023-05-10T07:37:33;5.40;;;3.75;;
74471;SDS011;62920;53.572;10.050;2023-05-10T07:39:58;7.50;;;3.30;;
74471;SDS011;62920;53.572;10.050;2023-05-10T07:42:24;4.70;;;3.03;;
74471;SDS011;62920;53.572;10.050;2023-05-10T07:44:49;7.55;;;3.10;;
74471;SDS011;62920;53.572;10.050;2023-05-10T07:47:14;6.75;;;3.40;;
74471;SDS011;62920;53.572;10.050;2023-05-10T07:49:40;5.50;;;3.35;;
74471;SDS011;62920;53.572;10.050;2023-05-10T07:52:05;5.72;;;3.25;;
74471;SDS011;62920;53.572;10.050;2023-05-10T07:54:31;7.65;;;3.50;;
74471;SDS011;62920;53.572;10.050;2023-05-10T07:56:56;11.85;;;3.72;;
74471;SDS011;62920;53.572;10.050;2023-05-10T07:59:21;6.95;;;3.33;;
74471;SDS011;62920;53.572;10.050;2023-05-10T08:01:47;6.40;;;3.33;;
74471;SDS011;62920;53.572;10.050;2023-05-10T08:04:12;6.32;;;3.13;;
74471;SDS011;62920;53.572;10.050;2023-05-10T08:06:37;7.05;;;3.13;;
74471;SDS011;62920;53.572;10.050;2023-05-10T08:09:03;7.75;;;3.13;;
74471;SDS011;62920;53.572;10.050;2023-05-10T08:11:28;6.07;;;3.67;;
74471;SDS011;62920;53.572;10.050;2023-05-10T08:13:54;8.88;;;3.10;;
74471;SDS011;62920;53.572;10.050;2023-05-10T08:16:19;5.03;;;2.90;;
74471;SDS011;62920;53.572;10.050;2023-05-10T08:18:45;5.45;;;3.25;;
74471;SDS011;62920;53.572;10.050;2023-05-10T08:21:12;28.15;;;4.18;;
74471;SDS011;62920;53.572;10.050;2023-05-10T08:23:37;6.38;;;3.33;;
74471;SDS011;62920;53.572;10.050;2023-05-10T08:26:03;7.85;;;3.72;;
74471;SDS011;62920;53.572;10.050;2023-05-10T08:28:28;7.88;;;3.38;;
74471;SDS011;62920;53.572;10.050;2023-05-10T08:30:54;9.23;;;3.85;;
74471;SDS011;62920;53.572;10.050;2023-05-10T08:33:19;7.30;;;2.92;;
74471;SDS011;62920;53.572;10.050;2023-05-10T08:35:45;12.80;;;4.13;;
74471;SDS011;62920;53.572;10.050;2023-05-10T08:38:10;5.47;;;3.25;;
74471;SDS011;62920;53.572;10.050;2023-05-10T08:40:42;11.90;;;3.60;;
74471;SDS011;62920;53.572;10.050;2023-05-10T08:43:08;8.07;;;3.65;;
74471;SDS011;62920;53.572;10.050;2023-05-10T08:45:36;6.95;;;3.70;;
74471;SDS011;62920;53.572;10.050;2023-05-10T08:48:03;6.72;;;3.35;;
74471;SDS011;62920;53.572;10.050;2023-05-10T08:50:30;9.27;;;3.50;;
74471;SDS011;62920;53.572;10.050;2023-05-10T08:52:57;6.75;;;3.63;;
74471;SDS011;62920;53.572;10.050;2023-05-10T08:55:26;5.53;;;3.28;;
74471;SDS011;62920;53.572;10.050;2023-05-10T08:57:51;9.50;;;3.50;;
74471;SDS011;62920;53.572;10.050;2023-05-10T09:00:17;7.35;;;3.33;;
74471;SDS011;62920;53.572;10.050;2023-05-10T09:02:43;5.43;;;3.25;;
74471;SDS011;62920;53.572;10.050;2023-05-10T09:05:10;10.57;;;3.50;;
74471;SDS011;62920;53.572;10.050;2023-05-10T09:07:36;8.27;;;3.92;;
74471;SDS011;62920;53.572;10.050;2023-05-10T09:10:02;9.10;;;3.92;;
74471;SDS011;62920;53.572;10.050;2023-05-10T09:12:29;6.38;;;3.67;;
74471;SDS011;62920;53.572;10.050;2023-05-10T09:14:54;12.68;;;3.60;;
74471;SDS011;62920;53.572;10.050;2023-05-10T09:17:21;5.28;;;3.25;;
74471;SDS011;62920;53.572;10.050;2023-05-10T09:19:48;5.97;;;3.58;;
74471;SDS011;62920;53.572;10.050;2023-05-10T09:22:14;6.05;;;3.50;;
74471;SDS011;62920;53.572;10.050;2023-05-10T09:24:39;10.15;;;3.70;;
74471;SDS011;62920;53.572;10.050;2023-05-10T09:27:10;8.73;;;4.20;;
74471;SDS011;62920;53.572;10.050;2023-05-10T09:29:42;7.55;;;3.40;;
74471;SDS011;62920;53.572;10.050;2023-05-10T09:32:07;6.10;;;3.47;;
74471;SDS011;62920;53.572;10.050;2023-05-10T09:34:33;6.72;;;4.07;;
74471;SDS011;62920;53.572;10.050;2023-05-10T09:37:00;8.48;;;3.88;;
74471;SDS011;62920;53.572;10.050;2023-05-10T09:39:31;7.28;;;3.60;;
74471;SDS011;62920;53.572;10.050;2023-05-10T09:41:57;7.10;;;3.80;;
74471;SDS011;62920;53.572;10.050;2023-05-10T09:44:25;7.10;;;3.75;;
74471;SDS011;62920;53.572;10.050;2023-05-10T09:46:51;6.60;;;3.85;;
74471;SDS011;62920;53.572;10.050;2023-05-10T09:49:17;8.90;;;4.07;;
74471;SDS011;62920;53.572;10.050;2023-05-10T09:51:44;11.05;;;3.63;;
74471;SDS011;62920;53.572;10.050;2023-05-10T09:54:13;7.15;;;4.32;;
74471;SDS011;62920;53.572;10.050;2023-05-10T09:56:40;6.75;;;4.00;;
74471;SDS011;62920;53.572;10.050;2023-05-10T09:59:06;9.90;;;4.57;;
74471;SDS011;62920;53.572;10.050;2023-05-10T10:01:36;7.20;;;4.00;;
74471;SDS011;62920;53.572;10.050;2023-05-10T10:04:03;9.68;;;4.30;;
74471;SDS011;62920;53.572;10.050;2023-05-10T10:06:34;9.35;;;4.32;;
74471;SDS011;62920;53.572;10.050;2023-05-10T10:09:00;7.50;;;4.32;;
74471;SDS011;62920;53.572;10.050;2023-05-10T10:11:26;8.40;;;4.43;;
74471;SDS011;62920;53.572;10.050;2023-05-10T10:13:51;9.98;;;4.78;;
74471;SDS011;62920;53.572;10.050;2023-05-10T10:16:16;7.65;;;4.47;;
74471;SDS011;62920;53.572;10.050;2023-05-10T10:18:42;7.28;;;4.30;;
74471;SDS011;62920;53.572;10.050;2023-05-10T10:21:07;7.90;;;4.85;;
74471;SDS011;62920;53.572;10.050;2023-05-10T10:23:36;8.90;;;4.65;;
74471;SDS011;62920;53.572;10.050;2023-05-10T10:26:02;10.13;;;4.63;;
74471;SDS011;62920;53.572;10.050;2023-05-10T10:31:28;9.80;;;5.03;;
74471;SDS011;62920;53.572;10.050;2023-05-10T10:34:06;10.90;;;5.18;;
74471;SDS011;62920;53.572;10.050;2023-05-10T10:36:32;8.55;;;4.75;;
74471;SDS011;62920;53.572;10.050;2023-05-10T10:39:08;7.70;;;5.45;;
74471;SDS011;62920;53.572;10.050;2023-05-10T10:41:39;9.50;;;5.60;;
74471;SDS011;62920;53.572;10.050;2023-05-10T10:49:28;9.68;;;5.68;;
74471;SDS011;62920;53.572;10.050;2023-05-10T10:54:47;8.75;;;5.40;;
74471;SDS011;62920;53.572;10.050;2023-05-10T10:57:17;8.48;;;5.82;;
74471;SDS011;62920;53.572;10.050;2023-05-10T10:59:44;7.88;;;5.13;;
74471;SDS011;62920;53.572;10.050;2023-05-10T11:02:10;11.23;;;6.53;;
74471;SDS011;62920;53.572;10.050;2023-05-10T11:04:42;9.70;;;5.43;;
74471;SDS011;62920;53.572;10.050;2023-05-10T11:07:18;8.25;;;5.35;;
74471;SDS011;62920;53.572;10.050;2023-05-10T11:09:45;9.45;;;5.88;;
74471;SDS011;62920;53.572;10.050;2023-05-10T11:12:11;8.55;;;5.68;;
74471;SDS011;62920;53.572;10.050;2023-05-10T11:14:37;11.57;;;5.35;;
74471;SDS011;62920;53.572;10.050;2023-05-10T11:17:02;12.60;;;6.30;;
74471;SDS011;62920;53.572;10.050;2023-05-10T11:20:02;11.02;;;5.22;;
74471;SDS011;62920;53.572;10.050;2023-05-10T11:22:31;8.10;;;5.03;;
74471;SDS011;62920;53.572;10.050;2023-05-10T11:25:15;10.02;;;5.38;;
74471;SDS011;62920;53.572;10.050;2023-05-10T11:27:41;10.15;;;5.65;;
74471;SDS011;62920;53.572;10.050;2023-05-10T11:30:06;8.68;;;5.38;;
74471;SDS011;62920;53.572;10.050;2023-05-10T11:32:35;8.68;;;4.82;;
74471;SDS011;62920;53.572;10.050;2023-05-10T11:35:09;9.55;;;5.45;;
74471;SDS011;62920;53.572;10.050;2023-05-10T11:40:00;10.65;;;5.53;;
74471;SDS011;62920;53.572;10.050;2023-05-10T11:42:27;10.40;;;5.80;;
74471;SDS011;62920;53.572;10.050;2023-05-10T11:44:53;12.10;;;6.15;;
74471;SDS011;62920;53.572;10.050;2023-05-10T11:47:18;10.35;;;5.88;;
74471;SDS011;62920;53.572;10.050;2023-05-10T11:49:44;9.02;;;5.40;;
74471;SDS011;62920;53.572;10.050;2023-05-10T11:52:10;10.23;;;5.80;;
74471;SDS011;62920;53.572;10.050;2023-05-10T11:54:44;10.80;;;6.45;;
74471;SDS011;62920;53.572;10.050;2023-05-10T11:59:36;11.03;;;6.33;;
74471;SDS011;62920;53.572;10.050;2023-05-10T12:02:01;11.07;;;6.72;;
74471;SDS011;62920;53.572;10.050;2023-05-10T12:04:28;9.05;;;6.43;;
74471;SDS011;62920;53.572;10.050;2023-05-10T12:06:54;12.15;;;6.60;;
74471;SDS011;62920;53.572;10.050;2023-05-10T12:09:19;11.25;;;7.03;;
74471;SDS011;62920;53.572;10.050;2023-05-10T12:11:45;11.27;;;7.22;;
74471;SDS011;62920;53.572;10.050;2023-05-10T12:14:10;12.43;;;6.88;;
74471;SDS011;62920;53.572;10.050;2023-05-10T12:16:36;12.00;;;7.35;;
74471;SDS011;62920;53.572;10.050;2023-05-10T12:19:01;10.52;;;6.57;;
74471;SDS011;62920;53.572;10.050;2023-05-10T12:21:30;10.27;;;6.90;;
74471;SDS011;62920;53.572;10.050;2023-05-10T12:23:59;10.88;;;6.93;;
74471;SDS011;62920;53.572;10.050;2023-05-10T12:26:25;11.02;;;7.40;;
74471;SDS011;62920;53.572;10.050;2023-05-10T12:28:54;10.75;;;6.35;;
74471;SDS011;62920;53.572;10.050;2023-05-10T12:31:20;9.73;;;6.10;;
74471;SDS011;62920;53.572;10.050;2023-05-10T12:33:45;9.70;;;5.93;;
74471;SDS011;62920;53.572;10.050;2023-05-10T12:36:13;10.77;;;6.97;;
74471;SDS011;62920;53.572;10.050;2023-05-10T12:38:40;13.32;;;7.05;;
74471;SDS011;62920;53.572;10.050;2023-05-10T12:41:12;9.55;;;6.20;;
74471;SDS011;62920;53.572;10.050;2023-05-10T12:43:38;12.15;;;7.07;;
74471;SDS011;62920;53.572;10.050;2023-05-10T12:46:07;14.98;;;8.05;;
74471;SDS011;62920;53.572;10.050;2023-05-10T12:48:34;12.48;;;7.30;;
74471;SDS011;62920;53.572;10.050;2023-05-10T12:51:00;10.55;;;7.18;;
74471;SDS011;62920;53.572;10.050;2023-05-10T12:55:51;11.23;;;6.90;;
74471;SDS011;62920;53.572;10.050;2023-05-10T12:58:17;12.63;;;7.30;;
74471;SDS011;62920;53.572;10.050;2023-05-10T13:00:42;10.57;;;6.78;;
74471;SDS011;62920;53.572;10.050;2023-05-10T13:03:08;9.55;;;6.28;;
74471;SDS011;62920;53.572;10.050;2023-05-10T13:05:34;9.77;;;5.38;;
74471;SDS011;62920;53.572;10.050;2023-05-10T13:08:00;10.75;;;6.25;;
74471;SDS011;62920;53.572;10.050;2023-05-10T13:10:26;10.13;;;5.97;;
74471;SDS011;62920;53.572;10.050;2023-05-10T13:12:51;9.45;;;5.45;;
74471;SDS011;62920;53.572;10.050;2023-05-10T13:15:17;8.60;;;5.47;;
74471;SDS011;62920;53.572;10.050;2023-05-10T13:17:42;6.95;;;4.20;;
74471;SDS011;62920;53.572;10.050;2023-05-10T13:20:08;6.15;;;3.97;;
74471;SDS011;62920;53.572;10.050;2023-05-10T13:22:34;8.07;;;4.57;;
74471;SDS011;62920;53.572;10.050;2023-05-10T13:25:00;6.93;;;5.00;;
74471;SDS011;62920;53.572;10.050;2023-05-10T13:27:25;7.20;;;5.07;;
74471;SDS011;62920;53.572;10.050;2023-05-10T13:29:51;10.35;;;5.22;;
74471;SDS011;62920;53.572;10.050;2023-05-10T13:32:16;8.23;;;5.72;;
74471;SDS011;62920;53.572;10.050;2023-05-10T13:34:41;7.45;;;4.50;;
74471;SDS011;62920;53.572;10.050;2023-05-10T13:37:07;6.18;;;3.75;;
74471;SDS011;62920;53.572;10.050;2023-05-10T13:39:32;6.57;;;3.67;;
74471;SDS011;62920;53.572;10.050;2023-05-10T13:41:59;6.30;;;4.05;;
74471;SDS011;62920;53.572;10.050;2023-05-10T13:44:24;6.88;;;4.30;;
74471;SDS011;62920;53.572;10.050;2023-05-10T13:46:50;8.05;;;5.63;;
74471;SDS011;62920;53.572;10.050;2023-05-10T13:49:16;7.07;;;4.93;;
74471;SDS011;62920;53.572;10.050;2023-05-10T13:51:43;7.18;;;4.75;;
74471;SDS011;62920;53.572;10.050;2023-05-10T13:54:09;8.13;;;4.70;;
74471;SDS011;62920;53.572;10.050;2023-05-10T13:56:34;9.00;;;5.30;;
74471;SDS011;62920;53.572;10.050;2023-05-10T13:59:03;7.85;;;4.85;;
74471;SDS011;62920;53.572;10.050;2023-05-10T14:01:28;8.07;;;4.90;;
74471;SDS011;62920;53.572;10.050;2023-05-10T14:03:53;7.95;;;4.88;;
74471;SDS011;62920;53.572;10.050;2023-05-10T14:06:19;7.72;;;4.90;;
74471;SDS011;62920;53.572;10.050;2023-05-10T14:08:44;6.63;;;4.35;;
74471;SDS011;62920;53.572;10.050;2023-05-10T14:11:10;6.75;;;4.55;;
74471;SDS011;62920;53.572;10.050;2023-05-10T14:13:36;7.85;;;4.72;;
74471;SDS011;62920;53.572;10.050;2023-05-10T14:16:02;6.82;;;4.57;;
74471;SDS011;62920;53.572;10.050;2023-05-10T14:18:27;7.88;;;4.32;;
74471;SDS011;62920;53.572;10.050;2023-05-10T14:20:53;7.05;;;4.57;;
74471;SDS011;62920;53.572;10.050;2023-05-10T14:23:18;7.82;;;4.70;;
74471;SDS011;62920;53.572;10.050;2023-05-10T14:25:49;6.93;;;4.28;;
74471;SDS011;62920;53.572;10.050;2023-05-10T14:30:42;5.97;;;4.10;;
74471;SDS011;62920;53.572;10.050;2023-05-10T14:33:07;5.85;;;3.88;;
74471;SDS011;62920;53.572;10.050;2023-05-10T14:35:32;7.25;;;4.57;;
74471;SDS011;62920;53.572;10.050;2023-05-10T14:37:58;7.13;;;4.13;;
74471;SDS011;62920;53.572;10.050;2023-05-10T14:40:23;7.63;;;4.30;;
74471;SDS011;62920;53.572;10.050;2023-05-10T14:42:49;6.57;;;3.88;;
74471;SDS011;62920;53.572;10.050;2023-05-10T14:45:15;5.88;;;3.80;;
74471;SDS011;62920;53.572;10.050;2023-05-10T14:47:40;8.02;;;3.95;;
74471;SDS011;62920;53.572;10.050;2023-05-10T14:50:06;8.00;;;4.10;;
74471;SDS011;62920;53.572;10.050;2023-05-10T14:52:32;5.88;;;4.18;;
74471;SDS011;62920;53.572;10.050;2023-05-10T14:54:57;5.97;;;3.80;;
74471;SDS011;62920;53.572;10.050;2023-05-10T14:57:24;8.55;;;4.78;;
74471;SDS011;62920;53.572;10.050;2023-05-10T14:59:49;8.20;;;4.43;;
74471;SDS011;62920;53.572;10.050;2023-05-10T15:02:14;6.10;;;4.15;;
74471;SDS011;62920;53.572;10.050;2023-05-10T15:04:40;7.65;;;5.05;;
74471;SDS011;62920;53.572;10.050;2023-05-10T15:07:05;7.25;;;4.55;;
74471;SDS011;62920;53.572;10.050;2023-05-10T15:09:30;8.32;;;4.57;;
74471;SDS011;62920;53.572;10.050;2023-05-10T15:11:56;9.98;;;4.63;;
74471;SDS011;62920;53.572;10.050;2023-05-10T15:14:22;7.05;;;4.53;;